Time;durP1;ratioP1;P1;durP2;ratioP2;P2;SDS_P1;SDS_P2;PMS_P1;PMS_P2;Temp;Humidity;BMP_temperature;BMP_pressure;BME280_temperature;BME280_humidity;BME280_pressure;Samples;Min_cycle;Max_cycle;Signal;HPM_P1;HPM_P2
2022/08/04 00:01:32;;;;;;;3.65;1.45;;;;;;;21.18;100.00;94668.47;4965823;28;20399;-88
2022/08/04 00:04:05;;;;;;;1.50;1.33;;;;;;;21.33;100.00;94668.97;5037340;28;20046;-88
2022/08/04 00:06:52;;;;;;;1.57;1.40;;;;;;;21.37;100.00;94675.19;5038046;28;20439;-88
2022/08/04 00:09:43;;;;;;;3.78;1.40;;;;;;;21.44;100.00;94671.97;5038260;28;20317;-88
2022/08/04 00:12:11;;;;;;;2.47;1.42;;;;;;;21.50;100.00;94672.56;5037883;28;20022;-87
2022/08/04 00:14:40;;;;;;;2.60;1.50;;;;;;;21.50;100.00;94669.88;5038135;28;20075;-87
2022/08/04 00:17:09;;;;;;;2.38;1.45;;;;;;;21.35;100.00;94663.28;5021101;28;20061;-88
2022/08/04 00:19:40;;;;;;;2.22;1.50;;;;;;;21.25;100.00;94670.59;5037770;28;20025;-88
2022/08/04 00:22:08;;;;;;;1.80;1.38;;;;;;;21.31;100.00;94668.50;5037747;28;20022;-88
2022/08/04 00:24:34;;;;;;;2.58;1.40;;;;;;;21.47;100.00;94666.00;5021311;28;20327;-87
2022/08/04 00:27:01;;;;;;;1.58;1.40;;;;;;;21.55;100.00;94656.34;5037610;28;20116;-88
2022/08/04 00:29:27;;;;;;;4.68;1.60;;;;;;;21.64;100.00;94658.91;5037575;28;20052;-88
2022/08/04 00:31:54;;;;;;;2.03;1.52;;;;;;;21.69;100.00;94664.06;5037475;28;20061;-88
2022/08/04 00:34:20;;;;;;;1.33;1.23;;;;;;;21.39;100.00;94659.63;5037202;28;20036;-88
2022/08/04 00:36:45;;;;;;;2.50;1.55;;;;;;;21.24;100.00;94669.06;5037692;28;20100;-88
2022/08/04 00:39:12;;;;;;;1.60;1.38;;;;;;;21.14;100.00;94666.78;5037288;28;20030;-88
2022/08/04 00:42:10;;;;;;;1.92;1.40;;;;;;;21.25;100.00;94662.59;5037083;28;20021;-88
2022/08/04 00:45:17;;;;;;;1.60;1.20;;;;;;;21.30;100.00;94667.72;5034215;28;20052;-88
2022/08/04 00:48:15;;;;;;;2.83;1.67;;;;;;;21.23;100.00;94667.50;5016713;28;20045;-88
2022/08/04 00:50:56;;;;;;;3.33;1.20;;;;;;;21.12;100.00;94664.44;5037084;28;20496;-88
2022/08/04 00:53:24;;;;;;;7.85;1.60;;;;;;;20.84;100.00;94667.63;5038035;28;20030;-88
2022/08/04 00:56:04;;;;;;;3.30;1.40;;;;;;;20.75;100.00;94665.03;5037813;28;20029;-89
2022/08/04 00:58:52;;;;;;;1.85;1.60;;;;;;;20.96;100.00;94666.94;5037114;28;20414;-88
2022/08/04 01:01:38;;;;;;;2.50;1.58;;;;;;;20.94;100.00;94661.13;5037880;28;20459;-88
2022/08/04 01:04:14;;;;;;;2.67;1.52;;;;;;;20.95;100.00;94669.91;5036546;28;20065;-89
2022/08/04 01:06:39;;;;;;;5.50;1.50;;;;;;;20.84;100.00;94656.22;5036949;28;20048;-89
2022/08/04 01:09:23;;;;;;;4.03;1.30;;;;;;;20.84;100.00;94667.63;5036695;28;20080;-89
2022/08/04 01:11:55;;;;;;;;;;;;;;;20.73;100.00;94655.78;5036998;28;20036;-89
2022/08/04 01:15:04;;;;;;;6.07;1.73;;;;;;;20.82;100.00;94658.44;5037604;28;19909;-89
2022/08/04 01:17:37;;;;;;;2.67;1.60;;;;;;;20.62;100.00;94658.84;4980081;28;20502;-89
2022/08/04 01:20:08;;;;;;;1.48;1.23;;;;;;;20.75;100.00;94653.59;4964294;28;20076;-89
2022/08/04 01:22:33;;;;;;;3.90;1.30;;;;;;;20.89;100.00;94654.16;4994448;28;20041;-89
2022/08/04 01:25:26;;;;;;;2.28;1.40;;;;;;;20.78;100.00;94650.28;5036649;28;20036;-89
2022/08/04 01:28:15;;;;;;;2.08;1.60;;;;;;;20.66;100.00;94648.34;5036362;28;20049;-88
2022/08/04 01:30:42;;;;;;;3.78;1.58;;;;;;;20.41;100.00;94655.38;5036551;28;20065;-89
2022/08/04 01:33:08;;;;;;;2.30;1.27;;;;;;;20.34;100.00;94650.56;5020152;28;20095;-89
2022/08/04 01:35:35;;;;;;;4.95;1.50;;;;;;;20.24;100.00;94641.09;5019917;28;20084;-89
2022/08/04 01:38:18;;;;;;;3.92;1.70;;;;;;;20.23;100.00;94650.19;5036213;28;20039;-89
2022/08/04 01:40:44;;;;;;;3.00;1.27;;;;;;;20.32;100.00;94653.56;5019472;28;20025;-89
2022/08/04 01:43:12;;;;;;;3.38;1.33;;;;;;;20.45;100.00;94651.75;5019787;28;20071;-89
2022/08/04 01:45:39;;;;;;;3.10;1.60;;;;;;;20.55;100.00;94655.16;5036106;28;20029;-89
2022/08/04 01:48:06;;;;;;;1.60;1.23;;;;;;;20.42;100.00;94654.28;5036074;28;20025;-89
2022/08/04 01:50:35;;;;;;;2.47;1.75;;;;;;;20.48;100.00;94656.44;5036014;28;20075;-89
2022/08/04 01:53:02;;;;;;;2.92;1.35;;;;;;;20.45;100.00;94656.31;5019736;28;20469;-89
2022/08/04 01:55:29;;;;;;;2.10;1.50;;;;;;;20.33;100.00;94647.16;5035963;28;20021;-89
2022/08/04 01:57:58;;;;;;;7.05;1.70;;;;;;;20.40;100.00;94641.31;5035277;28;20431;-88
2022/08/04 02:00:26;;;;;;;3.30;1.40;;;;;;;20.43;100.00;94653.19;5019660;28;20032;-89
2022/08/04 02:02:52;;;;;;;3.53;1.50;;;;;;;20.41;100.00;94653.53;5035833;28;20431;-89
2022/08/04 02:05:19;;;;;;;3.20;1.50;;;;;;;20.35;100.00;94654.78;5019883;28;20060;-89
2022/08/04 02:08:06;;;;;;;1.60;1.25;;;;;;;20.37;100.00;94655.28;5036052;28;20013;-89
2022/08/04 02:10:41;;;;;;;7.60;1.40;;;;;;;20.52;100.00;94667.22;5035782;28;20030;-89
2022/08/04 02:13:14;;;;;;;1.83;1.50;;;;;;;20.85;100.00;94655.13;5035616;28;20076;-89
2022/08/04 02:15:40;;;;;;;;;;;;;;;21.02;100.00;94662.19;5037105;28;20032;-89
2022/08/04 02:18:22;;;;;;;3.03;1.30;;;;;;;20.89;100.00;94661.34;5035634;28;20222;-88
2022/08/04 02:20:59;;;;;;;2.13;1.50;;;;;;;20.95;100.00;94660.06;5035705;28;20573;-89
2022/08/04 02:23:35;;;;;;;4.70;1.40;;;;;;;20.75;100.00;94661.59;5035586;28;20048;-89
2022/08/04 02:26:04;;;;;;;4.65;1.48;;;;;;;20.87;100.00;94656.34;5035454;28;20028;-89
2022/08/04 02:28:44;;;;;;;4.03;1.42;;;;;;;21.02;100.00;94657.63;5035563;28;20029;-88
2022/08/04 02:31:23;;;;;;;1.80;1.23;;;;;;;20.98;100.00;94655.94;5019634;28;20033;-89
2022/08/04 02:34:00;;;;;;;3.17;1.20;;;;;;;20.76;100.00;94647.19;5036449;28;20032;-89
2022/08/04 02:36:30;;;;;;;2.03;1.30;;;;;;;20.69;100.00;94652.22;5036437;28;20501;-88
2022/08/04 02:38:59;;;;;;;1.65;1.40;;;;;;;20.84;100.00;94656.22;5035451;28;20079;-89
2022/08/04 02:41:26;;;;;;;2.30;1.38;;;;;;;20.80;100.00;94655.28;5035444;28;20311;-89
2022/08/04 02:43:55;;;;;;;2.17;1.58;;;;;;;20.81;100.00;94651.56;5035575;28;20030;-89
2022/08/04 02:46:21;;;;;;;4.70;1.55;;;;;;;20.75;100.00;94654.38;5019247;28;20182;-89
2022/08/04 02:48:49;;;;;;;5.00;1.70;;;;;;;20.61;100.00;94646.66;5035489;28;20443;-88
2022/08/04 02:51:19;;;;;;;2.35;1.60;;;;;;;20.62;100.00;94642.88;5035617;28;20127;-88
2022/08/04 02:53:46;;;;;;;4.75;1.67;;;;;;;20.53;100.00;94652.03;5035298;28;20151;-88
2022/08/04 02:56:14;;;;;;;2.22;1.27;;;;;;;20.59;100.00;94651.53;5016911;28;20032;-89
2022/08/04 02:58:41;;;;;;;3.25;1.40;;;;;;;20.66;100.00;94650.22;5016083;28;20030;-89
2022/08/04 03:01:07;;;;;;;1.90;1.33;;;;;;;20.60;100.00;94650.41;5006158;28;20084;-89
2022/08/04 03:04:06;;;;;;;5.93;1.30;;;;;;;20.49;100.00;94650.00;5030349;28;20030;-89
2022/08/04 03:06:50;;;;;;;5.18;1.20;;;;;;;20.52;100.00;94648.59;5015507;28;20032;-89
2022/08/04 03:09:42;;;;;;;2.03;1.30;;;;;;;20.54;100.00;94643.72;5016450;28;20030;-89
2022/08/04 03:12:29;;;;;;;2.13;1.42;;;;;;;20.71;100.00;94642.81;5019098;28;20440;-89
2022/08/04 03:15:30;;;;;;;1.67;1.10;;;;;;;20.58;100.00;94649.94;5019954;28;20030;-89
2022/08/04 03:18:13;;;;;;;3.08;1.40;;;;;;;20.30;100.00;94636.38;5018998;28;20021;-89
2022/08/04 03:21:02;;;;;;;1.73;1.40;;;;;;;20.08;100.00;94634.78;5018962;28;20112;-89
2022/08/04 03:23:33;;;;;;;1.95;1.38;;;;;;;20.03;100.00;94638.38;5019802;28;20398;-89
2022/08/04 03:26:11;;;;;;;3.15;1.50;;;;;;;20.08;100.00;94635.53;5019854;28;20115;-89
2022/08/04 03:28:51;;;;;;;1.55;1.13;;;;;;;20.02;100.00;94634.19;5018436;28;20038;-89
2022/08/04 03:31:43;;;;;;;5.93;1.77;;;;;;;20.06;100.00;94632.44;5019988;28;20033;-89
2022/08/04 03:34:30;;;;;;;4.90;1.20;;;;;;;20.00;100.00;94636.38;5018707;28;20054;-88
2022/08/04 03:37:13;;;;;;;2.72;1.75;;;;;;;19.97;100.00;94631.72;5018974;28;20416;-89
2022/08/04 03:39:58;;;;;;;7.22;1.63;;;;;;;19.77;100.00;94629.41;5018641;28;20515;-89
2022/08/04 03:42:46;;;;;;;3.95;1.73;;;;;;;19.67;100.00;94634.31;5019479;28;20351;-88
2022/08/04 03:45:56;;;;;;;3.00;1.35;;;;;;;19.60;100.00;94629.47;5018550;28;20080;-89
2022/08/04 03:48:45;;;;;;;1.50;1.23;;;;;;;19.67;100.00;94624.44;5018183;28;20077;-89
2022/08/04 03:54:32;;;;;;;3.30;1.40;;;;;;;19.92;100.00;94632.66;5018024;28;20117;-90
2022/08/04 03:57:06;;;;;;;3.13;1.60;;;;;;;19.90;100.00;94638.25;5018183;28;20044;-89
2022/08/04 04:00:04;;;;;;;2.85;1.83;;;;;;;19.83;100.00;94638.00;5018293;28;20021;-89
2022/08/04 04:03:20;;;;;;;2.75;1.27;;;;;;;19.88;100.00;94642.34;5008971;28;20042;-89
2022/08/04 04:06:19;;;;;;;6.35;1.33;;;;;;;20.09;100.00;94646.97;5009890;28;20352;-89
2022/08/04 04:09:03;;;;;;;2.00;1.20;;;;;;;20.10;100.00;94646.66;5019366;28;20025;-90
2022/08/04 04:11:49;;;;;;;;;;;;;;;20.13;100.00;94643.34;5018430;28;20033;-89
2022/08/04 04:14:22;;;;;;;1.70;1.42;;;;;;;20.11;100.00;94642.91;4988059;28;19952;-89
2022/08/04 04:16:54;;;;;;;4.63;1.30;;;;;;;20.12;100.00;94641.78;5018064;28;20387;-89
2022/08/04 04:19:37;;;;;;;3.83;1.40;;;;;;;20.10;100.00;94646.66;5018166;28;20084;-88
2022/08/04 04:22:28;;;;;;;3.55;1.50;;;;;;;19.96;100.00;94638.88;5018835;28;20575;-89
2022/08/04 04:25:03;;;;;;;4.40;1.75;;;;;;;19.82;100.00;94641.75;5001991;28;20117;-88
2022/08/04 04:27:54;;;;;;;3.38;1.52;;;;;;;19.80;100.00;94643.16;5017724;28;20033;-88
2022/08/04 04:31:04;;;;;;;1.40;1.30;;;;;;;19.89;100.00;94646.56;5018574;28;20054;-88
2022/08/04 04:33:37;;;;;;;2.72;1.38;;;;;;;19.95;100.00;94647.22;4998971;28;20503;-88
2022/08/04 04:36:35;;;;;;;2.03;1.23;;;;;;;20.11;100.00;94645.56;5017707;28;20026;-89
2022/08/04 04:39:24;;;;;;;1.65;1.20;;;;;;;20.09;100.00;94645.09;5018384;28;20026;-89
2022/08/04 04:42:23;;;;;;;3.65;1.70;;;;;;;20.12;100.00;94651.63;5017857;28;20018;-89
2022/08/04 04:45:10;;;;;;;2.95;1.20;;;;;;;20.15;100.00;94651.00;5018320;28;20030;-89
2022/08/04 04:47:55;;;;;;;1.83;1.33;;;;;;;20.23;100.00;94649.38;5017409;28;20324;-88
2022/08/04 04:50:36;;;;;;;9.98;1.60;;;;;;;20.24;100.00;94645.66;5017529;28;20121;-89
2022/08/04 04:53:20;;;;;;;3.60;1.23;;;;;;;20.35;100.00;94644.16;5017227;28;20025;-88
2022/08/04 04:55:52;;;;;;;6.68;1.60;;;;;;;20.30;100.00;94649.66;5001241;28;20026;-89
2022/08/04 04:58:19;;;;;;;1.10;0.95;;;;;;;20.48;100.00;94648.44;5001149;28;20087;-88
2022/08/04 05:00:44;;;;;;;76.38;6.10;;;;;;;20.51;100.00;94648.91;5001034;28;20018;-89
2022/08/04 05:03:35;;;;;;;12.43;1.55;;;;;;;20.42;100.00;94651.63;5017925;28;20026;-89
2022/08/04 05:06:18;;;;;;;6.93;1.67;;;;;;;20.60;100.00;94652.28;5017071;28;20030;-88
2022/08/04 05:09:10;;;;;;;5.05;1.52;;;;;;;20.41;100.00;94653.53;5018299;28;20025;-89
2022/08/04 05:12:02;;;;;;;3.60;1.23;;;;;;;20.66;100.00;94656.34;5018171;28;20053;-89
2022/08/04 05:14:32;;;;;;;4.22;1.58;;;;;;;20.68;100.00;94662.09;5016879;28;20026;-89
2022/08/04 05:17:05;;;;;;;6.90;1.70;;;;;;;20.68;100.00;94666.63;5016964;28;20049;-88
2022/08/04 05:19:46;;;;;;;4.83;1.67;;;;;;;20.71;100.00;94658.78;5000543;28;20021;-89
2022/08/04 05:22:24;;;;;;;1.88;1.27;;;;;;;20.87;100.00;94659.03;5000856;28;20344;-88
2022/08/04 05:24:57;;;;;;;3.47;1.50;;;;;;;21.01;100.00;94663.28;5016761;28;20668;-89
2022/08/04 05:27:30;;;;;;;7.78;1.83;;;;;;;21.05;100.00;94659.63;5016791;28;20061;-89
2022/08/04 05:30:01;;;;;;;14.25;2.13;;;;;;;21.26;100.00;94666.03;5016952;28;20051;-88
2022/08/04 05:32:30;;;;;;;6.40;1.70;;;;;;;21.23;100.00;94662.16;5000039;28;20036;-89
2022/08/04 05:35:02;;;;;;;3.75;1.50;;;;;;;21.33;100.00;94659.06;5016449;28;20032;-89
2022/08/04 05:37:29;;;;;;;3.10;1.48;;;;;;;21.60;100.00;94661.47;5000442;28;20033;-89
2022/08/04 05:40:02;;;;;;;3.67;1.30;;;;;;;21.57;100.00;94657.56;5016350;28;20036;-89
2022/08/04 05:42:29;;;;;;;6.38;1.60;;;;;;;21.62;100.00;94656.59;5017681;28;20022;-89
2022/08/04 05:44:56;;;;;;;4.97;1.30;;;;;;;21.89;100.00;94667.78;5000412;28;20026;-87
2022/08/04 05:47:22;;;;;;;4.43;1.20;;;;;;;21.78;100.00;94667.41;5016077;28;20026;-87
2022/08/04 05:49:48;;;;;;;3.45;1.13;;;;;;;21.87;100.00;94665.44;5000174;28;20033;-88
2022/08/04 05:52:14;;;;;;;4.32;1.48;;;;;;;22.10;100.00;94664.22;5000155;28;20085;-88
2022/08/04 05:54:40;;;;;;;8.32;1.35;;;;;;;22.34;100.00;94668.75;5016360;28;20079;-88
2022/08/04 05:57:07;;;;;;;7.05;1.75;;;;;;;22.56;100.00;94674.78;5017391;28;20029;-88
2022/08/04 05:59:36;;;;;;;20.98;2.20;;;;;;;22.50;100.00;94670.75;5016234;28;20036;-88
2022/08/04 06:02:02;;;;;;;45.58;3.78;;;;;;;22.66;100.00;94668.19;5016141;28;20432;-88
2022/08/04 06:04:34;;;;;;;26.90;3.28;;;;;;;22.91;100.00;94668.91;5000182;28;20328;-87
2022/08/04 06:07:00;;;;;;;7.50;1.80;;;;;;;22.94;100.00;94668.22;4999941;28;20032;-87
2022/08/04 06:09:25;;;;;;;4.75;1.50;;;;;;;23.20;100.00;94664.34;5016121;28;20026;-87
2022/08/04 06:11:52;;;;;;;9.38;1.50;;;;;;;23.29;100.00;94662.31;4999868;28;20030;-87
2022/08/04 06:14:19;;;;;;;4.18;1.38;;;;;;;23.40;100.00;94656.50;5015766;28;20033;-87
2022/08/04 06:16:46;;;;;;;26.52;2.78;;;;;;;23.37;100.00;94662.50;5016254;28;20026;-86
2022/08/04 06:19:12;;;;;;;7.55;1.50;;;;;;;23.57;100.00;94666.06;4999594;28;20022;-87
2022/08/04 06:21:40;;;;;;;5.55;1.40;;;;;;;23.67;100.00;94665.56;4999742;28;20040;-87
2022/08/04 06:24:09;;;;;;;4.10;1.58;;;;;;;23.68;100.00;94671.72;5015859;28;20427;-87
2022/08/04 06:26:35;;;;;;;13.30;1.95;;;;;;;23.81;100.00;94665.13;5016074;28;20034;-87
2022/08/04 06:29:02;;;;;;;3.78;1.48;;;;;;;23.89;100.00;94662.66;4999749;28;20136;-87
2022/08/04 06:31:57;;;;;;;3.63;1.40;;;;;;;23.95;100.00;94663.94;5015607;28;20093;-87
2022/08/04 06:34:15;;;;;;;2.47;1.30;;;;;;;23.99;100.00;94659.47;5015452;28;20034;-87
2022/08/04 06:36:41;;;;;;;2.47;1.35;;;;;;;24.05;100.00;94660.00;5015898;28;20026;-87
2022/08/04 06:39:07;;;;;;;3.58;1.50;;;;;;;24.15;100.00;94670.16;5015463;28;20050;-87
2022/08/04 06:41:33;;;;;;;3.97;1.50;;;;;;;24.03;100.00;94663.00;5015877;28;20068;-87
2022/08/04 06:44:02;;;;;;;2.30;1.20;;;;;;;24.00;100.00;94669.81;5016226;28;20054;-87
2022/08/04 06:46:29;;;;;;;3.45;1.20;;;;;;;24.24;100.00;94667.31;5019955;28;20030;-87
2022/08/04 06:48:55;;;;;;;1.38;1.10;;;;;;;24.19;100.00;94671.03;5019595;28;20029;-87
2022/08/04 06:51:23;;;;;;;1.83;1.25;;;;;;;24.26;100.00;94670.44;5019529;28;20026;-87
2022/08/04 06:53:51;;;;;;;4.18;1.50;;;;;;;24.41;100.00;94669.63;5019360;28;20374;-86
2022/08/04 06:56:18;;;;;;;6.95;1.33;;;;;;;24.41;100.00;94663.47;5020498;28;20109;-85
2022/08/04 06:58:46;;;;;;;1.80;1.15;;;;;;;24.66;100.00;94680.09;5030287;28;20033;-85
2022/08/04 07:01:13;;;;;;;3.30;1.02;;;;;;;24.67;100.00;94676.28;5019160;28;20450;-85
2022/08/04 07:03:38;;;;;;;3.17;1.20;;;;;;;24.71;99.21;94674.47;5018991;28;20033;-86
2022/08/04 07:06:04;;;;;;;1.13;1.02;;;;;;;24.85;97.23;94681.28;5019161;28;20025;-85
2022/08/04 07:08:30;;;;;;;4.63;1.20;;;;;;;24.97;96.10;94686.50;5019069;28;20033;-86
2022/08/04 07:10:56;;;;;;;3.22;1.52;;;;;;;24.94;100.00;94683.75;5018951;28;20030;-85
2022/08/04 07:13:22;;;;;;;2.42;1.48;;;;;;;25.08;97.38;94685.94;5020012;28;20320;-86
2022/08/04 07:15:48;;;;;;;5.55;1.50;;;;;;;25.20;90.99;94682.34;5002797;28;20021;-86
2022/08/04 07:18:13;;;;;;;2.08;1.20;;;;;;;25.42;92.18;94681.59;5018824;28;20116;-86
2022/08/04 07:20:43;;;;;;;3.42;1.20;;;;;;;25.57;95.64;94675.78;5018813;28;20111;-86
2022/08/04 07:23:10;;;;;;;1.98;1.40;;;;;;;25.60;89.92;94677.72;5009339;28;20033;-86
2022/08/04 07:25:37;;;;;;;3.03;1.10;;;;;;;25.66;88.64;94676.28;5018700;28;20028;-87
2022/08/04 07:28:02;;;;;;;2.78;1.10;;;;;;;25.72;90.80;94672.19;5003026;28;20096;-86
2022/08/04 07:30:29;;;;;;;1.77;1.10;;;;;;;26.02;84.91;94673.44;5002114;28;20033;-87
2022/08/04 07:32:55;;;;;;;4.50;1.23;;;;;;;26.02;84.80;94676.91;5018107;28;20363;-86
2022/08/04 07:35:22;;;;;;;2.00;1.23;;;;;;;26.14;88.26;94667.13;5018536;28;20029;-86
2022/08/04 07:37:48;;;;;;;1.88;1.10;;;;;;;26.36;89.63;94665.56;5018791;28;20029;-88
2022/08/04 07:40:13;;;;;;;2.13;1.10;;;;;;;26.51;86.75;94670.00;5018599;28;20129;-86
2022/08/04 07:42:39;;;;;;;1.42;1.20;;;;;;;26.58;78.65;94679.28;5018070;28;20030;-87
2022/08/04 07:45:05;;;;;;;2.05;1.15;;;;;;;26.61;81.35;94673.94;5018650;28;20132;-85
2022/08/04 07:47:31;;;;;;;2.17;1.05;;;;;;;26.65;69.35;94677.44;5019464;28;20037;-85
2022/08/04 07:49:57;;;;;;;2.65;1.30;;;;;;;26.76;73.60;94677.63;5018258;28;20359;-86
2022/08/04 07:52:23;;;;;;;1.25;0.90;;;;;;;26.56;63.60;94673.50;5018712;28;20037;-86
2022/08/04 07:54:50;;;;;;;2.42;1.00;;;;;;;26.98;67.13;94675.22;5017748;28;20451;-86
2022/08/04 07:57:17;;;;;;;5.38;1.25;;;;;;;27.14;73.32;94672.34;5016526;28;20461;-86
2022/08/04 07:59:43;;;;;;;4.85;1.10;;;;;;;27.23;58.99;94667.44;5019214;28;20029;-86
2022/08/04 08:02:09;;;;;;;3.58;0.75;;;;;;;27.36;55.38;94667.19;5002234;28;20188;-86
2022/08/04 08:04:35;;;;;;;1.50;1.00;;;;;;;27.48;55.42;94669.63;5017582;28;20079;-85
2022/08/04 08:07:00;;;;;;;1.48;0.90;;;;;;;27.66;51.25;94661.75;5017978;28;20033;-85
2022/08/04 08:09:26;;;;;;;1.52;0.80;;;;;;;27.66;46.68;94658.28;5001849;28;20338;-85
2022/08/04 08:11:54;;;;;;;1.10;0.85;;;;;;;27.81;48.67;94661.88;5017817;28;20378;-87
2022/08/04 08:14:19;;;;;;;1.40;0.90;;;;;;;27.91;45.33;94658.50;5018035;28;20033;-86
2022/08/04 08:16:45;;;;;;;3.25;1.17;;;;;;;27.84;45.12;94660.38;5017727;28;20054;-87
2022/08/04 08:19:13;;;;;;;2.45;0.70;;;;;;;27.79;46.23;94659.53;5001904;28;20490;-86
2022/08/04 08:21:39;;;;;;;1.27;0.90;;;;;;;27.96;51.24;94656.59;5017715;28;20037;-87
2022/08/04 08:24:05;;;;;;;1.20;0.80;;;;;;;27.94;45.09;94651.59;5017259;28;20033;-88
2022/08/04 08:26:30;;;;;;;0.95;0.70;;;;;;;28.09;44.42;94661.31;5001726;28;20044;-85
2022/08/04 08:28:56;;;;;;;1.25;0.80;;;;;;;27.96;44.48;94651.97;5017631;28;20117;-87
2022/08/04 08:31:23;;;;;;;2.22;0.85;;;;;;;28.06;41.56;94662.06;5017776;28;20038;-86
2022/08/04 08:33:51;;;;;;;2.05;0.60;;;;;;;28.20;41.77;94649.88;5017141;28;20439;-86
2022/08/04 08:36:35;;;;;;;2.38;0.70;;;;;;;28.39;42.01;94654.25;5001304;28;20025;-87
2022/08/04 08:39:11;;;;;;;0.88;0.57;;;;;;;28.27;39.13;94649.16;5017313;28;20034;-86
2022/08/04 08:41:46;;;;;;;0.95;0.70;;;;;;;28.44;39.05;94658.53;5001008;28;20168;-87
2022/08/04 08:44:20;;;;;;;1.00;0.82;;;;;;;28.14;41.02;94660.19;5017074;28;20033;-86
2022/08/04 08:47:08;;;;;;;1.85;0.70;;;;;;;28.39;42.71;94656.94;5017663;28;20033;-86
2022/08/04 08:49:47;;;;;;;1.80;0.80;;;;;;;28.29;40.62;94658.44;5017205;28;20026;-86
2022/08/04 08:52:21;;;;;;;0.90;0.80;;;;;;;28.63;38.50;94652.84;5017228;28;20137;-86
2022/08/04 08:54:55;;;;;;;1.33;0.75;;;;;;;28.77;39.86;94660.25;5017841;28;20072;-87
2022/08/04 08:57:46;;;;;;;1.00;0.80;;;;;;;28.90;39.13;94652.63;5001492;28;20056;-85
2022/08/04 09:00:24;;;;;;;2.03;0.80;;;;;;;28.96;39.79;94655.72;5000952;28;20347;-86
2022/08/04 09:02:54;;;;;;;2.50;0.80;;;;;;;28.69;39.57;94652.47;5017717;28;20076;-86
2022/08/04 09:05:29;;;;;;;2.78;0.80;;;;;;;29.06;42.05;94656.91;5000453;28;20037;-85
2022/08/04 09:08:31;;;;;;;1.25;0.88;;;;;;;29.10;40.06;94654.22;5015756;28;20037;-86
2022/08/04 09:11:11;;;;;;;0.70;0.70;;;;;;;29.21;41.24;94657.75;5016694;28;20037;-85
2022/08/04 09:14:00;;;;;;;2.85;0.95;;;;;;;29.06;39.87;94648.81;5016317;28;20113;-85
2022/08/04 09:16:40;;;;;;;2.03;1.00;;;;;;;28.99;40.75;94651.50;5000530;28;20036;-84
2022/08/04 09:19:11;;;;;;;1.00;0.90;;;;;;;29.41;41.54;94657.41;5016874;28;20427;-86
2022/08/04 09:21:58;;;;;;;1.38;0.90;;;;;;;29.38;39.65;94655.47;5016694;28;20428;-87
2022/08/04 09:24:28;;;;;;;0.93;0.82;;;;;;;29.43;40.19;94647.81;5016327;28;20080;-86
2022/08/04 09:27:01;;;;;;;1.25;0.70;;;;;;;29.72;40.25;94647.84;5016722;28;20431;-86
2022/08/04 09:29:35;;;;;;;2.72;1.10;;;;;;;29.99;39.76;94660.19;5000077;28;20128;-86
2022/08/04 09:32:19;;;;;;;4.10;0.85;;;;;;;30.13;38.82;94654.03;5017515;28;20117;-85
2022/08/04 09:35:14;;;;;;;2.13;0.70;;;;;;;30.13;39.00;94651.34;5016519;28;20511;-85
2022/08/04 09:37:39;;;;;;;2.13;0.80;;;;;;;30.18;36.91;94654.41;5000258;28;20030;-85
2022/08/04 09:40:22;;;;;;;4.00;1.08;;;;;;;29.80;38.12;94655.94;5017376;28;20040;-85
2022/08/04 09:42:59;;;;;;;3.38;0.90;;;;;;;29.70;37.61;94652.06;4999934;28;20029;-85
2022/08/04 09:45:40;;;;;;;1.67;0.98;;;;;;;29.62;38.52;94651.28;5017416;28;20026;-86
2022/08/04 09:48:09;;;;;;;1.83;1.00;;;;;;;29.78;38.49;94648.22;5016244;28;20033;-85
2022/08/04 09:50:45;;;;;;;2.80;0.95;;;;;;;29.63;38.66;94647.44;4997904;28;20038;-85
2022/08/04 09:53:13;;;;;;;2.63;1.00;;;;;;;29.60;38.55;94646.25;5032072;28;20029;-86
2022/08/04 09:55:45;;;;;;;2.20;0.90;;;;;;;29.58;38.31;94643.19;5017206;28;20084;-86
2022/08/04 09:58:41;;;;;;;1.65;0.82;;;;;;;29.75;37.70;94636.25;5016215;28;20030;-87
2022/08/04 10:01:10;;;;;;;8.10;0.90;;;;;;;29.83;37.30;94633.56;5016064;28;20336;-86
2022/08/04 10:03:40;;;;;;;1.10;0.98;;;;;;;29.86;38.87;94622.75;5008702;28;20046;-87
2022/08/04 10:06:07;;;;;;;1.42;0.80;;;;;;;30.19;38.32;94630.88;5034337;28;20029;-86
2022/08/04 10:08:53;;;;;;;2.97;1.00;;;;;;;30.35;36.73;94627.78;5019349;28;20486;-87
2022/08/04 10:12:00;;;;;;;1.08;0.98;;;;;;;30.15;36.04;94622.00;5036747;28;20030;-86
2022/08/04 10:14:59;;;;;;;2.80;1.10;;;;;;;30.00;37.04;94621.22;5035605;28;20061;-88
2022/08/04 10:17:37;;;;;;;3.45;1.10;;;;;;;30.33;36.78;94628.16;5035713;28;20461;-85
2022/08/04 10:20:25;;;;;;;4.15;1.00;;;;;;;30.80;39.83;94621.84;5035151;28;20026;-87
2022/08/04 10:23:11;;;;;;;3.13;0.80;;;;;;;30.63;36.53;94617.28;5035395;28;20028;-87
2022/08/04 10:25:57;;;;;;;1.05;0.95;;;;;;;30.64;35.59;94619.63;5023268;28;20057;-87
2022/08/04 10:28:23;;;;;;;1.10;0.98;;;;;;;30.89;35.75;94610.59;5016410;28;20038;-87
2022/08/04 10:30:55;;;;;;;3.35;1.05;;;;;;;31.15;36.37;94611.25;5015794;28;20120;-87
2022/08/04 10:33:24;;;;;;;1.50;1.00;;;;;;;31.16;35.34;94604.69;4999290;28;20029;-87
2022/08/04 10:35:53;;;;;;;3.42;1.00;;;;;;;31.06;35.49;94611.69;5015851;28;20026;-86
2022/08/04 10:38:31;;;;;;;2.15;0.85;;;;;;;30.93;35.83;94602.47;5015545;28;20116;-87
2022/08/04 10:41:24;;;;;;;5.05;0.95;;;;;;;30.80;35.46;94604.88;4999391;28;20079;-88
2022/08/04 10:44:17;;;;;;;1.13;1.02;;;;;;;30.36;35.95;94594.19;5012445;28;20042;-87
2022/08/04 10:46:49;;;;;;;1.00;0.90;;;;;;;30.60;35.21;94592.56;5015988;28;20492;-87
2022/08/04 10:49:29;;;;;;;1.83;0.82;;;;;;;30.37;35.56;94589.53;5015565;28;20025;-87
2022/08/04 10:52:02;;;;;;;1.20;1.02;;;;;;;30.39;35.25;94598.00;5015526;28;20093;-87
2022/08/04 10:54:44;;;;;;;2.10;1.10;;;;;;;30.64;35.38;94594.50;5016462;28;20025;-86
2022/08/04 10:57:27;;;;;;;1.13;0.70;;;;;;;31.21;35.34;94590.78;4999677;28;20119;-87
2022/08/04 11:00:03;;;;;;;1.92;0.82;;;;;;;31.59;34.12;94601.72;5015601;28;20057;-87
2022/08/04 11:02:44;;;;;;;3.63;1.05;;;;;;;31.55;33.29;94602.91;5015645;28;20029;-87
2022/08/04 11:05:24;;;;;;;2.47;1.10;;;;;;;31.68;34.57;94601.28;5015488;28;20030;-87
2022/08/04 11:07:56;;;;;;;3.35;0.90;;;;;;;31.56;33.71;94597.09;5016498;28;20029;-87
2022/08/04 11:10:24;;;;;;;0.98;0.90;;;;;;;31.59;32.79;94598.25;4999081;28;20096;-87
2022/08/04 11:12:55;;;;;;;3.58;1.00;;;;;;;31.72;33.93;94598.53;5016377;28;20317;-86
2022/08/04 11:15:35;;;;;;;5.13;1.10;;;;;;;31.72;33.37;94595.84;5015250;28;20022;-86
2022/08/04 11:18:05;;;;;;;1.13;0.80;;;;;;;31.65;33.20;94590.50;4999366;28;20030;-87
2022/08/04 11:20:40;;;;;;;1.77;1.10;;;;;;;31.77;33.34;94591.94;4999627;28;20053;-88
2022/08/04 11:23:21;;;;;;;1.05;1.00;;;;;;;31.99;33.15;94590.63;5014909;28;20033;-87
2022/08/04 11:26:20;;;;;;;3.33;1.00;;;;;;;31.97;33.19;94579.38;5015491;28;20034;-87
2022/08/04 11:29:09;;;;;;;1.63;1.10;;;;;;;32.39;33.16;94586.75;4999878;28;20032;-88
2022/08/04 11:31:39;;;;;;;1.25;0.77;;;;;;;32.21;33.39;94568.72;5016873;28;20088;-88
2022/08/04 11:34:10;;;;;;;3.35;1.30;;;;;;;32.40;32.84;94577.44;5018758;28;20065;-86
2022/08/04 11:36:45;;;;;;;1.17;0.88;;;;;;;32.09;32.58;94577.34;5018530;28;20026;-88
2022/08/04 11:39:32;;;;;;;1.42;0.95;;;;;;;32.25;33.16;94580.28;5002406;28;20068;-87
2022/08/04 11:42:15;;;;;;;1.25;0.93;;;;;;;32.43;33.19;94568.53;5019665;28;20072;-86
2022/08/04 11:44:50;;;;;;;1.10;1.00;;;;;;;31.85;33.02;94567.13;5019381;28;20440;-87
2022/08/04 11:47:25;;;;;;;2.72;1.10;;;;;;;32.49;33.23;94572.31;5018655;28;20026;-87
2022/08/04 11:50:14;;;;;;;1.40;1.02;;;;;;;32.39;34.50;94562.34;5018756;28;20044;-88
2022/08/04 11:52:43;;;;;;;1.92;1.00;;;;;;;32.20;33.77;94569.88;5018462;28;20053;-88
2022/08/04 11:55:11;;;;;;;3.13;1.02;;;;;;;32.37;33.13;94567.41;5018500;28;20113;-87
2022/08/04 11:57:37;;;;;;;2.47;0.88;;;;;;;32.09;33.74;94563.81;5018422;28;20032;-87
2022/08/04 12:00:11;;;;;;;1.45;1.00;;;;;;;32.58;33.52;94569.91;5001984;28;20025;-88
2022/08/04 12:03:01;;;;;;;2.25;1.20;;;;;;;32.89;33.43;94569.09;5002256;28;20037;-88
2022/08/04 12:05:46;;;;;;;2.15;1.00;;;;;;;32.72;32.35;94560.78;5002143;28;20029;-87
2022/08/04 12:08:28;;;;;;;1.75;1.23;;;;;;;32.57;34.78;94559.44;5002165;28;20091;-88
2022/08/04 12:11:05;;;;;;;5.10;1.13;;;;;;;32.44;33.06;94556.50;5018379;28;20030;-88